South Range, Michigan
Current Conditions -  °F | °C
As of 3:53 AM on Saturday 20 Dec 2014 (Local Time) from KCMX Reporting Station
Clear Clear  
Wind Chill: 13°   Ceiling: Unl
Heat Index: 20°   Visibility: 10mi
Dew Point: 16°   Wind: 5mph
Humidity: 85%   Direction: 190°S
Pressure: 30.18"   Gusts: NA
Location:  47.07°N, 88.64°W
Report Text: KCMX 200853Z AUTO 19004KT 10SM CLR M07/M09 A3018 RMK AO2 SLP240 T10671089 55003 $
Loading
Personal Weather Stations






























Interactive Weather Map New forecast layout! Learn more

10-Day Weather Forecast

Advertisements
Track Severe Weather on mobile